sensor_id;sensor_type;location;lat;lon;timestamp;pressure;altitude;pressure_sealevel;temperature;humidity
21100;BME280;10708;50.824;4.408;2023-04-04T00:03:40;101838.03;;;3.50;100.00
21100;BME280;10708;50.824;4.408;2023-04-04T00:08:44;101838.78;;;3.42;100.00
21100;BME280;10708;50.824;4.408;2023-04-04T00:13:47;101826.59;;;3.38;100.00
21100;BME280;10708;50.824;4.408;2023-04-04T00:18:49;101826.50;;;3.33;100.00
21100;BME280;10708;50.824;4.408;2023-04-04T00:23:53;101829.03;;;3.27;100.00
21100;BME280;10708;50.824;4.408;2023-04-04T00:28:56;101824.59;;;3.21;100.00
21100;BME280;10708;50.824;4.408;2023-04-04T00:33:58;101818.47;;;3.16;100.00
21100;BME280;10708;50.824;4.408;2023-04-04T00:39:02;101822.72;;;3.11;100.00
21100;BME280;10708;50.824;4.408;2023-04-04T00:44:05;101827.88;;;3.07;100.00
21100;BME280;10708;50.824;4.408;2023-04-04T00:49:07;101830.41;;;3.02;100.00
21100;BME280;10708;50.824;4.408;2023-04-04T00:54:11;101832.97;;;2.99;100.00
21100;BME280;10708;50.824;4.408;2023-04-04T00:59:13;101837.25;;;2.95;100.00
21100;BME280;10708;50.824;4.408;2023-04-04T01:04:16;101841.50;;;2.90;100.00
21100;BME280;10708;50.824;4.408;2023-04-04T01:09:20;101835.34;;;2.85;100.00
21100;BME280;10708;50.824;4.408;2023-04-04T01:14:23;101839.63;;;2.82;100.00
21100;BME280;10708;50.824;4.408;2023-04-04T01:19:29;101838.72;;;2.78;100.00
21100;BME280;10708;50.824;4.408;2023-04-04T01:24:35;101849.91;;;2.74;100.00
21100;BME280;10708;50.824;4.408;2023-04-04T01:29:38;101853.31;;;2.69;100.00
21100;BME280;10708;50.824;4.408;2023-04-04T01:34:45;101853.16;;;2.61;100.00
21100;BME280;10708;50.824;4.408;2023-04-04T01:39:53;101859.19;;;2.58;100.00
21100;BME280;10708;50.824;4.408;2023-04-04T01:44:59;101869.50;;;2.54;100.00
21100;BME280;10708;50.824;4.408;2023-04-04T01:50:02;101864.22;;;2.48;100.00
21100;BME280;10708;50.824;4.408;2023-04-04T01:55:05;101863.22;;;2.43;100.00
21100;BME280;10708;50.824;4.408;2023-04-04T02:00:11;101862.28;;;2.38;100.00
21100;BME280;10708;50.824;4.408;2023-04-04T02:05:15;101856.09;;;2.33;100.00
21100;BME280;10708;50.824;4.408;2023-04-04T02:10:19;101862.16;;;2.32;100.00
21100;BME280;10708;50.824;4.408;2023-04-04T02:15:22;101853.44;;;2.28;100.00
21100;BME280;10708;50.824;4.408;2023-04-04T02:20:25;101862.03;;;2.24;100.00
21100;BME280;10708;50.824;4.408;2023-04-04T02:25:27;101861.06;;;2.19;100.00
21100;BME280;10708;50.824;4.408;2023-04-04T02:30:31;101858.34;;;2.13;100.00
21100;BME280;10708;50.824;4.408;2023-04-04T02:35:35;101853.03;;;2.07;100.00
21100;BME280;10708;50.824;4.408;2023-04-04T02:40:37;101846.88;;;2.03;100.00
21100;BME280;10708;50.824;4.408;2023-04-04T02:45:43;101840.72;;;1.97;100.00
21100;BME280;10708;50.824;4.408;2023-04-04T02:50:46;101824.09;;;1.89;100.00
21100;BME280;10708;50.824;4.408;2023-04-04T02:55:48;101833.53;;;1.85;100.00
21100;BME280;10708;50.824;4.408;2023-04-04T03:00:54;101827.38;;;1.80;100.00
21100;BME280;10708;50.824;4.408;2023-04-04T03:05:57;101825.56;;;1.76;100.00
21100;BME280;10708;50.824;4.408;2023-04-04T03:11:00;101814.19;;;1.69;100.00
21100;BME280;10708;50.824;4.408;2023-04-04T03:16:04;101821.91;;;1.66;100.00
21100;BME280;10708;50.824;4.408;2023-04-04T03:21:07;101814.88;;;1.62;100.00
21100;BME280;10708;50.824;4.408;2023-04-04T03:26:10;101820.91;;;1.60;100.00
21100;BME280;10708;50.824;4.408;2023-04-04T03:31:13;101825.97;;;1.54;100.00
21100;BME280;10708;50.824;4.408;2023-04-04T03:36:16;101825.00;;;1.48;100.00
21100;BME280;10708;50.824;4.408;2023-04-04T03:41:18;101816.19;;;1.42;100.00
21100;BME280;10708;50.824;4.408;2023-04-04T03:46:22;101813.50;;;1.37;100.00
21100;BME280;10708;50.824;4.408;2023-04-04T03:51:25;101823.03;;;1.37;100.00
21100;BME280;10708;50.824;4.408;2023-04-04T03:56:29;101832.38;;;1.29;100.00
21100;BME280;10708;50.824;4.408;2023-04-04T04:01:33;101839.16;;;1.24;100.00
21100;BME280;10708;50.824;4.408;2023-04-04T04:06:35;101839.94;;;1.20;100.00
21100;BME280;10708;50.824;4.408;2023-04-04T04:11:37;101843.34;;;1.17;100.00
21100;BME280;10708;50.824;4.408;2023-04-04T04:16:41;101839.88;;;1.17;100.00
21100;BME280;10708;50.824;4.408;2023-04-04T04:21:43;101847.63;;;1.15;100.00
21100;BME280;10708;50.824;4.408;2023-04-04T04:26:46;101851.00;;;1.13;100.00
21100;BME280;10708;50.824;4.408;2023-04-04T04:31:50;101839.66;;;1.07;100.00
21100;BME280;10708;50.824;4.408;2023-04-04T04:36:53;101843.00;;;1.03;100.00
21100;BME280;10708;50.824;4.408;2023-04-04T04:41:55;101836.91;;;1.01;100.00
21100;BME280;10708;50.824;4.408;2023-04-04T04:46:58;101830.00;;;1.02;100.00
21100;BME280;10708;50.824;4.408;2023-04-04T04:52:01;101831.72;;;1.01;100.00
21100;BME280;10708;50.824;4.408;2023-04-04T04:57:03;101834.28;;;1.00;100.00
21100;BME280;10708;50.824;4.408;2023-04-04T05:02:07;101844.56;;;0.95;100.00
21100;BME280;10708;50.824;4.408;2023-04-04T05:07:10;101842.81;;;0.94;100.00
21100;BME280;10708;50.824;4.408;2023-04-04T05:12:13;101838.34;;;0.89;100.00
21100;BME280;10708;50.824;4.408;2023-04-04T05:17:16;101854.81;;;0.91;100.00
21100;BME280;10708;50.824;4.408;2023-04-04T05:22:19;101853.94;;;0.90;100.00
21100;BME280;10708;50.824;4.408;2023-04-04T05:27:21;101854.81;;;0.91;100.00
21100;BME280;10708;50.824;4.408;2023-04-04T05:32:25;101853.13;;;0.93;100.00
21100;BME280;10708;50.824;4.408;2023-04-04T05:37:27;101848.81;;;0.93;100.00
21100;BME280;10708;50.824;4.408;2023-04-04T05:42:31;101855.84;;;0.97;100.00
21100;BME280;10708;50.824;4.408;2023-04-04T05:47:35;101862.81;;;0.98;100.00
21100;BME280;10708;50.824;4.408;2023-04-04T05:52:37;101862.84;;;1.01;100.00
21100;BME280;10708;50.824;4.408;2023-04-04T05:57:46;101873.34;;;1.06;100.00
21100;BME280;10708;50.824;4.408;2023-04-04T06:02:50;101882.06;;;1.08;100.00
21100;BME280;10708;50.824;4.408;2023-04-04T06:07:53;101882.09;;;1.09;100.00
21100;BME280;10708;50.824;4.408;2023-04-04T06:12:55;101889.13;;;1.15;100.00
21100;BME280;10708;50.824;4.408;2023-04-04T06:17:59;101889.25;;;1.21;100.00
21100;BME280;10708;50.824;4.408;2023-04-04T06:23:01;101895.59;;;1.32;100.00
21100;BME280;10708;50.824;4.408;2023-04-04T06:28:04;101888.88;;;1.42;100.00
21100;BME280;10708;50.824;4.408;2023-04-04T06:33:09;101889.28;;;1.59;100.00
21100;BME280;10708;50.824;4.408;2023-04-04T06:38:12;101893.09;;;1.76;100.00
21100;BME280;10708;50.824;4.408;2023-04-04T06:43:15;101895.13;;;1.91;100.00
21100;BME280;10708;50.824;4.408;2023-04-04T06:48:19;101897.25;;;2.08;100.00
21100;BME280;10708;50.824;4.408;2023-04-04T06:53:23;101894.16;;;2.28;100.00
21100;BME280;10708;50.824;4.408;2023-04-04T06:58:26;101902.19;;;2.41;100.00
21100;BME280;10708;50.824;4.408;2023-04-04T07:03:31;101912.91;;;2.56;100.00
21100;BME280;10708;50.824;4.408;2023-04-04T07:08:35;101920.16;;;2.74;100.00
21100;BME280;10708;50.824;4.408;2023-04-04T07:13:43;101907.34;;;2.85;100.00
21100;BME280;10708;50.824;4.408;2023-04-04T07:18:48;101917.19;;;3.04;100.00
21100;BME280;10708;50.824;4.408;2023-04-04T07:24:06;101918.31;;;3.18;100.00
21100;BME280;10708;50.824;4.408;2023-04-04T07:29:14;101915.94;;;3.33;100.00
21100;BME280;10708;50.824;4.408;2023-04-04T07:34:18;101910.09;;;3.51;100.00
21100;BME280;10708;50.824;4.408;2023-04-04T07:39:22;101900.81;;;3.70;100.00
21100;BME280;10708;50.824;4.408;2023-04-04T07:44:25;101900.31;;;4.77;100.00
21100;BME280;10708;50.824;4.408;2023-04-04T07:49:32;101890.69;;;5.92;100.00
21100;BME280;10708;50.824;4.408;2023-04-04T07:54:36;101873.38;;;7.51;100.00
21100;BME280;10708;50.824;4.408;2023-04-04T07:59:40;101876.28;;;8.76;100.00
21100;BME280;10708;50.824;4.408;2023-04-04T08:04:45;101861.78;;;8.11;100.00
21100;BME280;10708;50.824;4.408;2023-04-04T08:09:48;101870.44;;;8.38;100.00
21100;BME280;10708;50.824;4.408;2023-04-04T08:14:50;101861.69;;;8.34;100.00
21100;BME280;10708;50.824;4.408;2023-04-04T08:19:55;101859.25;;;7.93;100.00
21100;BME280;10708;50.824;4.408;2023-04-04T08:24:57;101860.16;;;7.80;100.00
21100;BME280;10708;50.824;4.408;2023-04-04T08:30:00;101865.78;;;8.76;100.00
21100;BME280;10708;50.824;4.408;2023-04-04T08:35:06;101861.44;;;9.62;100.00
21100;BME280;10708;50.824;4.408;2023-04-04T08:40:10;101858.84;;;10.31;100.00
21100;BME280;10708;50.824;4.408;2023-04-04T08:45:16;101856.53;;;10.07;100.00
21100;BME280;10708;50.824;4.408;2023-04-04T08:50:21;101859.78;;;9.55;100.00
21100;BME280;10708;50.824;4.408;2023-04-04T08:55:25;101879.00;;;9.60;100.00
21100;BME280;10708;50.824;4.408;2023-04-04T09:00:28;101883.19;;;9.78;100.00
21100;BME280;10708;50.824;4.408;2023-04-04T09:05:33;101884.00;;;9.85;100.00
21100;BME280;10708;50.824;4.408;2023-04-04T09:10:36;101886.22;;;10.17;100.00
21100;BME280;10708;50.824;4.408;2023-04-04T09:15:40;101877.44;;;9.43;100.00
21100;BME280;10708;50.824;4.408;2023-04-04T09:20:46;101880.38;;;9.11;100.00
21100;BME280;10708;50.824;4.408;2023-04-04T09:25:50;101892.88;;;8.83;100.00
21100;BME280;10708;50.824;4.408;2023-04-04T09:30:53;101882.97;;;7.60;100.00
21100;BME280;10708;50.824;4.408;2023-04-04T09:36:01;101889.13;;;7.45;100.00
21100;BME280;10708;50.824;4.408;2023-04-04T09:41:07;101876.81;;;7.73;100.00
21100;BME280;10708;50.824;4.408;2023-04-04T09:46:11;101861.88;;;7.96;100.00
21100;BME280;10708;50.824;4.408;2023-04-04T09:51:17;101863.44;;;8.32;100.00
21100;BME280;10708;50.824;4.408;2023-04-04T09:56:20;101861.69;;;8.31;100.00
21100;BME280;10708;50.824;4.408;2023-04-04T10:01:23;101862.75;;;7.89;100.00
21100;BME280;10708;50.824;4.408;2023-04-04T10:06:28;101862.78;;;7.86;100.00
21100;BME280;10708;50.824;4.408;2023-04-04T10:11:33;101866.25;;;7.94;100.00
21100;BME280;10708;50.824;4.408;2023-04-04T10:16:44;101862.59;;;8.20;100.00
21100;BME280;10708;50.824;4.408;2023-04-04T10:21:48;101847.81;;;8.06;100.00
21100;BME280;10708;50.824;4.408;2023-04-04T10:26:51;101844.44;;;7.82;100.00
21100;BME280;10708;50.824;4.408;2023-04-04T10:31:58;101850.44;;;8.03;100.00
21100;BME280;10708;50.824;4.408;2023-04-04T10:37:07;101843.50;;;7.89;100.00
21100;BME280;10708;50.824;4.408;2023-04-04T10:42:14;101843.56;;;7.83;100.00
21100;BME280;10708;50.824;4.408;2023-04-04T10:47:19;101848.03;;;7.56;100.00
21100;BME280;10708;50.824;4.408;2023-04-04T10:52:26;101834.06;;;7.47;100.00
21100;BME280;10708;50.824;4.408;2023-04-04T10:57:30;101831.47;;;7.36;100.00
21100;BME280;10708;50.824;4.408;2023-04-04T11:02:47;101833.22;;;7.32;100.00
21100;BME280;10708;50.824;4.408;2023-04-04T11:07:56;101834.16;;;7.09;100.00
21100;BME280;10708;50.824;4.408;2023-04-04T11:13:01;101835.91;;;7.07;100.00
21100;BME280;10708;50.824;4.408;2023-04-04T11:18:11;101821.88;;;7.36;100.00
21100;BME280;10708;50.824;4.408;2023-04-04T11:23:16;101809.66;;;7.23;100.00
21100;BME280;10708;50.824;4.408;2023-04-04T11:28:27;101813.09;;;7.45;100.00
21100;BME280;10708;50.824;4.408;2023-04-04T11:33:56;101790.41;;;7.36;100.00
21100;BME280;10708;50.824;4.408;2023-04-04T11:39:02;101789.53;;;7.37;100.00
21100;BME280;10708;50.824;4.408;2023-04-04T11:44:08;101791.19;;;7.61;100.00
21100;BME280;10708;50.824;4.408;2023-04-04T11:49:12;101789.53;;;7.36;100.00
21100;BME280;10708;50.824;4.408;2023-04-04T11:54:17;101773.78;;;7.39;100.00
21100;BME280;10708;50.824;4.408;2023-04-04T11:59:20;101772.78;;;7.76;100.00
21100;BME280;10708;50.824;4.408;2023-04-04T12:04:24;101767.38;;;8.02;100.00
21100;BME280;10708;50.824;4.408;2023-04-04T12:09:29;101761.19;;;8.09;100.00
21100;BME280;10708;50.824;4.408;2023-04-04T12:14:32;101745.50;;;8.05;100.00
21100;BME280;10708;50.824;4.408;2023-04-04T12:19:36;101742.06;;;7.98;100.00
21100;BME280;10708;50.824;4.408;2023-04-04T12:24:40;101751.50;;;8.21;100.00
21100;BME280;10708;50.824;4.408;2023-04-04T12:29:43;101744.56;;;8.13;100.00
21100;BME280;10708;50.824;4.408;2023-04-04T12:34:48;101741.94;;;8.17;100.00
21100;BME280;10708;50.824;4.408;2023-04-04T12:39:52;101731.44;;;8.17;100.00
21100;BME280;10708;50.824;4.408;2023-04-04T12:44:57;101735.63;;;8.42;100.00
21100;BME280;10708;50.824;4.408;2023-04-04T12:50:00;101730.47;;;8.31;98.89
21100;BME280;10708;50.824;4.408;2023-04-04T12:55:09;101726.06;;;8.38;100.00
21100;BME280;10708;50.824;4.408;2023-04-04T13:00:12;101719.78;;;8.49;100.00
21100;BME280;10708;50.824;4.408;2023-04-04T13:05:15;101704.88;;;8.58;100.00
21100;BME280;10708;50.824;4.408;2023-04-04T13:10:21;101700.50;;;8.55;100.00
21100;BME280;10708;50.824;4.408;2023-04-04T13:15:47;101685.25;;;8.91;100.00
21100;BME280;10708;50.824;4.408;2023-04-04T13:20:51;101694.66;;;9.10;100.00
21100;BME280;10708;50.824;4.408;2023-04-04T13:25:55;101686.81;;;9.07;100.00
21100;BME280;10708;50.824;4.408;2023-04-04T13:31:01;101678.06;;;9.06;99.56
21100;BME280;10708;50.824;4.408;2023-04-04T13:36:04;101671.75;;;9.19;100.00
21100;BME280;10708;50.824;4.408;2023-04-04T13:41:08;101660.09;;;9.39;100.00
21100;BME280;10708;50.824;4.408;2023-04-04T13:46:10;101654.06;;;9.32;95.90
21100;BME280;10708;50.824;4.408;2023-04-04T13:51:13;101649.94;;;9.14;95.84
21100;BME280;10708;50.824;4.408;2023-04-04T13:56:16;101641.00;;;9.28;99.99
21100;BME280;10708;50.824;4.408;2023-04-04T14:01:20;101633.66;;;9.49;98.76
21100;BME280;10708;50.824;4.408;2023-04-04T14:06:22;101638.84;;;9.55;94.51
21100;BME280;10708;50.824;4.408;2023-04-04T14:11:26;101639.72;;;9.56;96.27
21100;BME280;10708;50.824;4.408;2023-04-04T14:16:31;101630.16;;;9.49;95.86
21100;BME280;10708;50.824;4.408;2023-04-04T14:21:34;101622.25;;;9.52;100.00
21100;BME280;10708;50.824;4.408;2023-04-04T14:26:37;101613.44;;;9.54;96.37
21100;BME280;10708;50.824;4.408;2023-04-04T14:31:40;101605.63;;;9.50;94.46
21100;BME280;10708;50.824;4.408;2023-04-04T14:36:43;101607.22;;;9.60;95.46
21100;BME280;10708;50.824;4.408;2023-04-04T14:41:47;101590.31;;;9.76;98.76
21100;BME280;10708;50.824;4.408;2023-04-04T14:46:50;101578.97;;;9.71;94.10
21100;BME280;10708;50.824;4.408;2023-04-04T14:51:53;101578.75;;;9.86;95.29
21100;BME280;10708;50.824;4.408;2023-04-04T14:56:57;101587.25;;;10.02;98.08
21100;BME280;10708;50.824;4.408;2023-04-04T15:02:04;101577.56;;;10.04;96.19
21100;BME280;10708;50.824;4.408;2023-04-04T15:07:07;101571.41;;;10.05;96.49
21100;BME280;10708;50.824;4.408;2023-04-04T15:12:12;101565.25;;;10.06;96.88
21100;BME280;10708;50.824;4.408;2023-04-04T15:17:16;101562.47;;;10.14;97.11
21100;BME280;10708;50.824;4.408;2023-04-04T15:22:19;101556.22;;;10.21;97.17
21100;BME280;10708;50.824;4.408;2023-04-04T15:27:24;101564.66;;;9.89;92.46
21100;BME280;10708;50.824;4.408;2023-04-04T15:32:26;101558.50;;;9.90;94.44
21100;BME280;10708;50.824;4.408;2023-04-04T15:37:29;101561.75;;;10.06;99.80
21100;BME280;10708;50.824;4.408;2023-04-04T15:42:33;101558.84;;;10.21;97.70
21100;BME280;10708;50.824;4.408;2023-04-04T15:47:36;101562.31;;;10.24;96.25
21100;BME280;10708;50.824;4.408;2023-04-04T15:52:38;101558.69;;;10.30;99.09
21100;BME280;10708;50.824;4.408;2023-04-04T15:57:42;101548.06;;;10.34;95.70
21100;BME280;10708;50.824;4.408;2023-04-04T16:02:44;101540.03;;;10.41;97.48
21100;BME280;10708;50.824;4.408;2023-04-04T16:07:47;101531.34;;;10.37;99.02
21100;BME280;10708;50.824;4.408;2023-04-04T16:12:50;101523.50;;;10.34;98.65
21100;BME280;10708;50.824;4.408;2023-04-04T16:17:53;101517.53;;;10.26;97.83
21100;BME280;10708;50.824;4.408;2023-04-04T16:22:58;101521.41;;;10.04;94.29
21100;BME280;10708;50.824;4.408;2023-04-04T16:28:02;101515.97;;;10.13;97.04
21100;BME280;10708;50.824;4.408;2023-04-04T16:33:05;101504.69;;;10.08;94.97
21100;BME280;10708;50.824;4.408;2023-04-04T16:38:07;101507.38;;;10.05;96.34
21100;BME280;10708;50.824;4.408;2023-04-04T16:43:11;101502.16;;;10.02;96.70
21100;BME280;10708;50.824;4.408;2023-04-04T16:48:13;101494.31;;;9.98;97.00
21100;BME280;10708;50.824;4.408;2023-04-04T16:53:16;101496.19;;;9.92;96.47
21100;BME280;10708;50.824;4.408;2023-04-04T16:58:20;101503.16;;;9.96;96.32
21100;BME280;10708;50.824;4.408;2023-04-04T17:03:22;101496.91;;;10.00;96.48
21100;BME280;10708;50.824;4.408;2023-04-04T17:08:25;101494.91;;;10.14;99.63
21100;BME280;10708;50.824;4.408;2023-04-04T17:13:29;101501.91;;;10.15;97.77
21100;BME280;10708;50.824;4.408;2023-04-04T17:18:31;101506.34;;;10.12;96.52
21100;BME280;10708;50.824;4.408;2023-04-04T17:23:34;101501.09;;;10.12;95.92
21100;BME280;10708;50.824;4.408;2023-04-04T17:28:37;101503.69;;;10.13;96.12
21100;BME280;10708;50.824;4.408;2023-04-04T17:33:40;101502.78;;;10.14;99.01
21100;BME280;10708;50.824;4.408;2023-04-04T17:38:42;101505.53;;;10.08;98.75
21100;BME280;10708;50.824;4.408;2023-04-04T17:43:46;101510.16;;;9.95;96.66
21100;BME280;10708;50.824;4.408;2023-04-04T17:48:49;101502.63;;;9.76;95.34
21100;BME280;10708;50.824;4.408;2023-04-04T17:53:51;101500.09;;;9.70;97.54
21100;BME280;10708;50.824;4.408;2023-04-04T17:58:55;101498.59;;;9.55;96.69
21100;BME280;10708;50.824;4.408;2023-04-04T18:03:58;101497.00;;;9.46;97.73
21100;BME280;10708;50.824;4.408;2023-04-04T18:09:00;101497.09;;;9.39;98.03
21100;BME280;10708;50.824;4.408;2023-04-04T18:14:05;101499.09;;;9.24;96.70
21100;BME280;10708;50.824;4.408;2023-04-04T18:19:08;101499.31;;;9.09;95.11
21100;BME280;10708;50.824;4.408;2023-04-04T18:24:10;101499.44;;;9.00;96.04
21100;BME280;10708;50.824;4.408;2023-04-04T18:29:15;101499.59;;;8.89;97.26
21100;BME280;10708;50.824;4.408;2023-04-04T18:34:18;101502.38;;;8.79;97.70
21100;BME280;10708;50.824;4.408;2023-04-04T18:39:21;101508.59;;;8.72;98.31
21100;BME280;10708;50.824;4.408;2023-04-04T18:44:24;101516.59;;;8.64;98.04
21100;BME280;10708;50.824;4.408;2023-04-04T18:49:27;101521.06;;;8.58;99.55
21100;BME280;10708;50.824;4.408;2023-04-04T18:54:29;101518.50;;;8.48;98.61
21100;BME280;10708;50.824;4.408;2023-04-04T18:59:33;101526.50;;;8.41;99.47
21100;BME280;10708;50.824;4.408;2023-04-04T19:04:38;101521.31;;;8.35;100.00
21100;BME280;10708;50.824;4.408;2023-04-04T19:09:41;101522.25;;;8.26;100.00
21100;BME280;10708;50.824;4.408;2023-04-04T19:14:46;101527.56;;;8.19;100.00
21100;BME280;10708;50.824;4.408;2023-04-04T19:19:48;101525.91;;;8.10;100.00
21100;BME280;10708;50.824;4.408;2023-04-04T19:24:52;101539.09;;;8.04;100.00
21100;BME280;10708;50.824;4.408;2023-04-04T19:29:56;101536.56;;;7.98;100.00
21100;BME280;10708;50.824;4.408;2023-04-04T19:34:58;101526.97;;;7.92;100.00
21100;BME280;10708;50.824;4.408;2023-04-04T19:40:14;101543.66;;;7.87;100.00
21100;BME280;10708;50.824;4.408;2023-04-04T19:45:44;101541.94;;;7.83;100.00
21100;BME280;10708;50.824;4.408;2023-04-04T19:50:47;101534.13;;;7.78;100.00
21100;BME280;10708;50.824;4.408;2023-04-04T19:55:50;101536.75;;;7.75;100.00
21100;BME280;10708;50.824;4.408;2023-04-04T20:00:53;101530.66;;;7.71;100.00
21100;BME280;10708;50.824;4.408;2023-04-04T20:06:06;101535.97;;;7.65;100.00
21100;BME280;10708;50.824;4.408;2023-04-04T20:11:09;101536.88;;;7.60;100.00
21100;BME280;10708;50.824;4.408;2023-04-04T20:16:14;101543.03;;;7.56;100.00
21100;BME280;10708;50.824;4.408;2023-04-04T20:21:18;101550.06;;;7.51;100.00
21100;BME280;10708;50.824;4.408;2023-04-04T20:26:48;101544.00;;;7.41;100.00
21100;BME280;10708;50.824;4.408;2023-04-04T20:31:56;101550.19;;;7.34;100.00
21100;BME280;10708;50.824;4.408;2023-04-04T20:37:02;101556.38;;;7.25;100.00
21100;BME280;10708;50.824;4.408;2023-04-04T20:42:16;101551.19;;;7.16;100.00
21100;BME280;10708;50.824;4.408;2023-04-04T20:47:41;101543.38;;;7.07;100.00
21100;BME280;10708;50.824;4.408;2023-04-04T20:52:45;101545.19;;;6.96;100.00
21100;BME280;10708;50.824;4.408;2023-04-04T20:57:47;101547.00;;;6.83;100.00
21100;BME280;10708;50.824;4.408;2023-04-04T21:02:52;101540.94;;;6.72;100.00
21100;BME280;10708;50.824;4.408;2023-04-04T21:07:55;101543.59;;;6.60;100.00
21100;BME280;10708;50.824;4.408;2023-04-04T21:12:59;101540.13;;;6.52;100.00
21100;BME280;10708;50.824;4.408;2023-04-04T21:18:06;101530.59;;;6.43;100.00
21100;BME280;10708;50.824;4.408;2023-04-04T21:23:28;101530.63;;;6.29;100.00
21100;BME280;10708;50.824;4.408;2023-04-04T21:28:33;101513.22;;;6.12;100.00
21100;BME280;10708;50.824;4.408;2023-04-04T21:33:37;101516.72;;;6.00;100.00
21100;BME280;10708;50.824;4.408;2023-04-04T21:38:40;101509.78;;;5.85;100.00
21100;BME280;10708;50.824;4.408;2023-04-04T21:43:42;101508.03;;;5.75;100.00
21100;BME280;10708;50.824;4.408;2023-04-04T21:48:46;101506.31;;;5.68;100.00
21100;BME280;10708;50.824;4.408;2023-04-04T21:53:49;101517.63;;;5.56;100.00
21100;BME280;10708;50.824;4.408;2023-04-04T21:58:52;101506.31;;;5.44;100.00
21100;BME280;10708;50.824;4.408;2023-04-04T22:03:57;101513.25;;;5.31;100.00
21100;BME280;10708;50.824;4.408;2023-04-04T22:08:59;101514.13;;;5.19;100.00
21100;BME280;10708;50.824;4.408;2023-04-04T22:14:03;101503.69;;;5.09;100.00
21100;BME280;10708;50.824;4.408;2023-04-04T22:19:08;101498.41;;;5.00;100.00
21100;BME280;10708;50.824;4.408;2023-04-04T22:24:10;101502.75;;;4.93;100.00
21100;BME280;10708;50.824;4.408;2023-04-04T22:29:13;101494.91;;;4.90;100.00
21100;BME280;10708;50.824;4.408;2023-04-04T22:34:17;101488.84;;;4.87;100.00
21100;BME280;10708;50.824;4.408;2023-04-04T22:39:19;101485.31;;;4.81;100.00
21100;BME280;10708;50.824;4.408;2023-04-04T22:44:22;101487.94;;;4.77;100.00
21100;BME280;10708;50.824;4.408;2023-04-04T22:49:26;101478.34;;;4.70;100.00
21100;BME280;10708;50.824;4.408;2023-04-04T22:54:28;101479.19;;;4.64;100.00
21100;BME280;10708;50.824;4.408;2023-04-04T22:59:31;101478.28;;;4.59;100.00
21100;BME280;10708;50.824;4.408;2023-04-04T23:04:35;101470.47;;;4.52;100.00
21100;BME280;10708;50.824;4.408;2023-04-04T23:09:37;101476.56;;;4.49;100.00
21100;BME280;10708;50.824;4.408;2023-04-04T23:14:39;101481.72;;;4.43;100.00
21100;BME280;10708;50.824;4.408;2023-04-04T23:19:43;101470.41;;;4.35;100.00
21100;BME280;10708;50.824;4.408;2023-04-04T23:24:46;101466.03;;;4.28;100.00
21100;BME280;10708;50.824;4.408;2023-04-04T23:29:49;101465.97;;;4.20;100.00
21100;BME280;10708;50.824;4.408;2023-04-04T23:34:53;101460.75;;;4.14;100.00
21100;BME280;10708;50.824;4.408;2023-04-04T23:39:56;101457.25;;;4.11;100.00
21100;BME280;10708;50.824;4.408;2023-04-04T23:44:58;101450.31;;;4.08;100.00
21100;BME280;10708;50.824;4.408;2023-04-04T23:50:04;101451.13;;;4.04;100.00
21100;BME280;10708;50.824;4.408;2023-04-04T23:55:07;101441.56;;;4.01;100.00
